sensor_id;sensor_type;location;lat;lon;timestamp;P1;durP1;ratioP1;P2;durP2;ratioP2
17955;SDS011;27666;51.498;11.966;2023-01-10T00:01:08;8.30;;;4.00;;
17955;SDS011;27666;51.498;11.966;2023-01-10T00:03:54;5.00;;;3.20;;
17955;SDS011;27666;51.498;11.966;2023-01-10T00:06:42;5.30;;;3.40;;
17955;SDS011;27666;51.498;11.966;2023-01-10T00:09:28;5.70;;;3.73;;
17955;SDS011;27666;51.498;11.966;2023-01-10T00:12:14;4.63;;;3.30;;
17955;SDS011;27666;51.498;11.966;2023-01-10T00:15:18;3.83;;;3.03;;
17955;SDS011;27666;51.498;11.966;2023-01-10T00:18:05;4.97;;;3.50;;
17955;SDS011;27666;51.498;11.966;2023-01-10T00:20:52;3.43;;;2.80;;
17955;SDS011;27666;51.498;11.966;2023-01-10T00:23:40;6.97;;;3.00;;
17955;SDS011;27666;51.498;11.966;2023-01-10T00:26:28;5.30;;;3.70;;
17955;SDS011;27666;51.498;11.966;2023-01-10T00:29:14;26.10;;;12.40;;
17955;SDS011;27666;51.498;11.966;2023-01-10T00:32:01;6.07;;;3.70;;
17955;SDS011;27666;51.498;11.966;2023-01-10T00:34:47;4.33;;;3.63;;
17955;SDS011;27666;51.498;11.966;2023-01-10T00:37:34;7.10;;;3.47;;
17955;SDS011;27666;51.498;11.966;2023-01-10T00:40:22;4.87;;;3.67;;
17955;SDS011;27666;51.498;11.966;2023-01-10T00:43:08;8.53;;;3.40;;
17955;SDS011;27666;51.498;11.966;2023-01-10T00:46:12;4.10;;;3.30;;
17955;SDS011;27666;51.498;11.966;2023-01-10T00:48:58;7.27;;;3.80;;
17955;SDS011;27666;51.498;11.966;2023-01-10T00:51:50;5.63;;;3.57;;
17955;SDS011;27666;51.498;11.966;2023-01-10T00:54:36;4.67;;;3.60;;
17955;SDS011;27666;51.498;11.966;2023-01-10T00:57:24;6.90;;;3.87;;
17955;SDS011;27666;51.498;11.966;2023-01-10T01:00:11;10.33;;;4.17;;
17955;SDS011;27666;51.498;11.966;2023-01-10T01:02:58;5.40;;;3.40;;
17955;SDS011;27666;51.498;11.966;2023-01-10T01:05:45;6.23;;;3.83;;
17955;SDS011;27666;51.498;11.966;2023-01-10T01:08:33;5.90;;;3.67;;
17955;SDS011;27666;51.498;11.966;2023-01-10T01:11:19;4.57;;;3.20;;
17955;SDS011;27666;51.498;11.966;2023-01-10T01:14:07;8.63;;;3.50;;
17955;SDS011;27666;51.498;11.966;2023-01-10T01:16:54;6.53;;;3.23;;
17955;SDS011;27666;51.498;11.966;2023-01-10T01:19:41;4.33;;;2.97;;
17955;SDS011;27666;51.498;11.966;2023-01-10T01:22:28;7.33;;;3.63;;
17955;SDS011;27666;51.498;11.966;2023-01-10T01:25:14;5.30;;;3.70;;
17955;SDS011;27666;51.498;11.966;2023-01-10T01:28:01;4.97;;;3.47;;
17955;SDS011;27666;51.498;11.966;2023-01-10T01:30:49;6.20;;;3.40;;
17955;SDS011;27666;51.498;11.966;2023-01-10T01:33:36;4.63;;;3.47;;
17955;SDS011;27666;51.498;11.966;2023-01-10T01:36:23;7.40;;;2.83;;
17955;SDS011;27666;51.498;11.966;2023-01-10T01:39:09;7.17;;;3.60;;
17955;SDS011;27666;51.498;11.966;2023-01-10T01:41:55;4.10;;;3.27;;
17955;SDS011;27666;51.498;11.966;2023-01-10T01:44:42;6.03;;;3.17;;
17955;SDS011;27666;51.498;11.966;2023-01-10T01:47:32;5.73;;;3.50;;
17955;SDS011;27666;51.498;11.966;2023-01-10T01:50:23;7.90;;;3.17;;
17955;SDS011;27666;51.498;11.966;2023-01-10T01:53:12;6.33;;;3.00;;
17955;SDS011;27666;51.498;11.966;2023-01-10T01:56:03;3.87;;;2.80;;
17955;SDS011;27666;51.498;11.966;2023-01-10T01:58:55;4.23;;;3.00;;
17955;SDS011;27666;51.498;11.966;2023-01-10T02:01:45;3.50;;;3.00;;
17955;SDS011;27666;51.498;11.966;2023-01-10T02:04:37;5.40;;;3.73;;
17955;SDS011;27666;51.498;11.966;2023-01-10T02:07:30;3.90;;;3.00;;
17955;SDS011;27666;51.498;11.966;2023-01-10T02:10:23;6.87;;;3.10;;
17955;SDS011;27666;51.498;11.966;2023-01-10T02:13:14;4.63;;;3.40;;
17955;SDS011;27666;51.498;11.966;2023-01-10T02:16:04;5.87;;;3.60;;
17955;SDS011;27666;51.498;11.966;2023-01-10T02:18:52;6.83;;;3.90;;
17955;SDS011;27666;51.498;11.966;2023-01-10T02:21:55;4.70;;;3.47;;
17955;SDS011;27666;51.498;11.966;2023-01-10T02:28:38;4.30;;;3.67;;
17955;SDS011;27666;51.498;11.966;2023-01-10T02:31:49;9.13;;;3.57;;
17955;SDS011;27666;51.498;11.966;2023-01-10T02:34:52;7.93;;;4.00;;
17955;SDS011;27666;51.498;11.966;2023-01-10T02:37:50;5.07;;;4.10;;
17955;SDS011;27666;51.498;11.966;2023-01-10T02:40:45;4.27;;;3.63;;
17955;SDS011;27666;51.498;11.966;2023-01-10T02:43:40;8.13;;;4.27;;
17955;SDS011;27666;51.498;11.966;2023-01-10T02:46:31;6.23;;;4.07;;
17955;SDS011;27666;51.498;11.966;2023-01-10T02:49:21;7.70;;;4.23;;
17955;SDS011;27666;51.498;11.966;2023-01-10T02:52:08;7.23;;;4.50;;
17955;SDS011;27666;51.498;11.966;2023-01-10T02:54:56;6.73;;;4.47;;
17955;SDS011;27666;51.498;11.966;2023-01-10T02:57:47;6.43;;;4.47;;
17955;SDS011;27666;51.498;11.966;2023-01-10T03:00:42;5.97;;;4.53;;
17955;SDS011;27666;51.498;11.966;2023-01-10T03:03:35;7.83;;;3.83;;
17955;SDS011;27666;51.498;11.966;2023-01-10T03:06:30;10.83;;;4.57;;
17955;SDS011;27666;51.498;11.966;2023-01-10T03:09:21;8.93;;;4.63;;
17955;SDS011;27666;51.498;11.966;2023-01-10T03:12:17;8.13;;;4.30;;
17955;SDS011;27666;51.498;11.966;2023-01-10T03:15:09;9.23;;;4.67;;
17955;SDS011;27666;51.498;11.966;2023-01-10T03:18:00;9.50;;;4.50;;
17955;SDS011;27666;51.498;11.966;2023-01-10T03:20:49;5.23;;;4.27;;
17955;SDS011;27666;51.498;11.966;2023-01-10T03:23:38;6.30;;;4.37;;
17955;SDS011;27666;51.498;11.966;2023-01-10T03:26:26;8.67;;;4.57;;
17955;SDS011;27666;51.498;11.966;2023-01-10T03:29:19;10.37;;;4.97;;
17955;SDS011;27666;51.498;11.966;2023-01-10T03:32:10;7.07;;;4.63;;
17955;SDS011;27666;51.498;11.966;2023-01-10T03:35:00;7.07;;;4.40;;
17955;SDS011;27666;51.498;11.966;2023-01-10T03:37:48;6.13;;;4.60;;
17955;SDS011;27666;51.498;11.966;2023-01-10T03:40:45;9.97;;;4.47;;
17955;SDS011;27666;51.498;11.966;2023-01-10T03:43:42;9.20;;;4.87;;
17955;SDS011;27666;51.498;11.966;2023-01-10T03:46:50;10.77;;;5.13;;
17955;SDS011;27666;51.498;11.966;2023-01-10T03:49:41;6.57;;;4.60;;
17955;SDS011;27666;51.498;11.966;2023-01-10T03:52:32;6.53;;;4.50;;
17955;SDS011;27666;51.498;11.966;2023-01-10T03:55:21;7.20;;;5.13;;
17955;SDS011;27666;51.498;11.966;2023-01-10T03:58:11;9.57;;;5.27;;
17955;SDS011;27666;51.498;11.966;2023-01-10T04:00:57;5.87;;;4.17;;
17955;SDS011;27666;51.498;11.966;2023-01-10T04:03:44;7.63;;;4.63;;
17955;SDS011;27666;51.498;11.966;2023-01-10T04:06:30;7.47;;;4.03;;
17955;SDS011;27666;51.498;11.966;2023-01-10T04:09:17;5.40;;;4.33;;
17955;SDS011;27666;51.498;11.966;2023-01-10T04:12:04;9.60;;;5.30;;
17955;SDS011;27666;51.498;11.966;2023-01-10T04:14:52;11.63;;;5.07;;
17955;SDS011;27666;51.498;11.966;2023-01-10T04:17:38;6.27;;;4.47;;
17955;SDS011;27666;51.498;11.966;2023-01-10T04:20:25;8.23;;;5.43;;
17955;SDS011;27666;51.498;11.966;2023-01-10T04:23:11;6.60;;;4.60;;
17955;SDS011;27666;51.498;11.966;2023-01-10T04:25:58;9.87;;;5.40;;
17955;SDS011;27666;51.498;11.966;2023-01-10T04:28:44;7.77;;;5.07;;
17955;SDS011;27666;51.498;11.966;2023-01-10T04:31:32;8.20;;;4.60;;
17955;SDS011;27666;51.498;11.966;2023-01-10T04:34:19;7.10;;;4.97;;
17955;SDS011;27666;51.498;11.966;2023-01-10T04:37:05;10.67;;;4.63;;
17955;SDS011;27666;51.498;11.966;2023-01-10T04:39:52;7.60;;;4.93;;
17955;SDS011;27666;51.498;11.966;2023-01-10T04:42:38;11.83;;;5.87;;
17955;SDS011;27666;51.498;11.966;2023-01-10T04:45:24;11.00;;;5.53;;
17955;SDS011;27666;51.498;11.966;2023-01-10T04:48:13;6.83;;;5.10;;
17955;SDS011;27666;51.498;11.966;2023-01-10T04:50:59;6.80;;;5.07;;
17955;SDS011;27666;51.498;11.966;2023-01-10T04:53:46;8.93;;;5.03;;
17955;SDS011;27666;51.498;11.966;2023-01-10T04:56:32;7.50;;;4.73;;
17955;SDS011;27666;51.498;11.966;2023-01-10T04:59:19;7.70;;;5.30;;
17955;SDS011;27666;51.498;11.966;2023-01-10T05:02:06;9.57;;;5.47;;
17955;SDS011;27666;51.498;11.966;2023-01-10T05:04:54;10.13;;;4.90;;
17955;SDS011;27666;51.498;11.966;2023-01-10T05:07:40;10.37;;;5.37;;
17955;SDS011;27666;51.498;11.966;2023-01-10T05:10:30;8.77;;;4.60;;
17955;SDS011;27666;51.498;11.966;2023-01-10T05:13:16;8.00;;;4.70;;
17955;SDS011;27666;51.498;11.966;2023-01-10T05:16:03;8.77;;;5.27;;
17955;SDS011;27666;51.498;11.966;2023-01-10T05:18:50;6.47;;;4.43;;
17955;SDS011;27666;51.498;11.966;2023-01-10T05:21:38;8.47;;;4.97;;
17955;SDS011;27666;51.498;11.966;2023-01-10T05:24:25;7.77;;;4.90;;
17955;SDS011;27666;51.498;11.966;2023-01-10T05:27:11;12.40;;;7.50;;
17955;SDS011;27666;51.498;11.966;2023-01-10T05:29:57;12.17;;;4.57;;
17955;SDS011;27666;51.498;11.966;2023-01-10T05:32:44;12.80;;;5.17;;
17955;SDS011;27666;51.498;11.966;2023-01-10T05:35:30;10.20;;;5.23;;
17955;SDS011;27666;51.498;11.966;2023-01-10T05:38:18;8.80;;;5.07;;
17955;SDS011;27666;51.498;11.966;2023-01-10T05:41:05;10.47;;;6.20;;
17955;SDS011;27666;51.498;11.966;2023-01-10T05:43:51;9.87;;;5.43;;
17955;SDS011;27666;51.498;11.966;2023-01-10T05:46:38;12.63;;;4.73;;
17955;SDS011;27666;51.498;11.966;2023-01-10T05:49:24;7.67;;;5.07;;
17955;SDS011;27666;51.498;11.966;2023-01-10T05:52:11;9.50;;;5.93;;
17955;SDS011;27666;51.498;11.966;2023-01-10T05:54:58;21.87;;;12.20;;
17955;SDS011;27666;51.498;11.966;2023-01-10T05:57:45;22.10;;;10.10;;
17955;SDS011;27666;51.498;11.966;2023-01-10T06:00:31;36.10;;;16.80;;
17955;SDS011;27666;51.498;11.966;2023-01-10T06:03:17;24.30;;;12.87;;
17955;SDS011;27666;51.498;11.966;2023-01-10T06:06:04;16.23;;;7.70;;
17955;SDS011;27666;51.498;11.966;2023-01-10T06:08:51;19.93;;;9.50;;
17955;SDS011;27666;51.498;11.966;2023-01-10T06:11:41;12.33;;;7.90;;
17955;SDS011;27666;51.498;11.966;2023-01-10T06:14:28;18.30;;;9.57;;
17955;SDS011;27666;51.498;11.966;2023-01-10T06:17:14;25.10;;;13.80;;
17955;SDS011;27666;51.498;11.966;2023-01-10T06:20:01;18.97;;;10.43;;
17955;SDS011;27666;51.498;11.966;2023-01-10T06:22:47;23.67;;;13.00;;
17955;SDS011;27666;51.498;11.966;2023-01-10T06:25:34;16.20;;;9.67;;
17955;SDS011;27666;51.498;11.966;2023-01-10T06:28:25;12.23;;;8.93;;
17955;SDS011;27666;51.498;11.966;2023-01-10T06:31:11;16.67;;;8.93;;
17955;SDS011;27666;51.498;11.966;2023-01-10T06:33:59;7.37;;;5.47;;
17955;SDS011;27666;51.498;11.966;2023-01-10T06:36:45;11.47;;;6.23;;
17955;SDS011;27666;51.498;11.966;2023-01-10T06:39:32;7.93;;;4.80;;
17955;SDS011;27666;51.498;11.966;2023-01-10T06:42:18;15.90;;;9.17;;
17955;SDS011;27666;51.498;11.966;2023-01-10T06:45:07;7.37;;;5.00;;
17955;SDS011;27666;51.498;11.966;2023-01-10T06:47:55;6.80;;;5.13;;
17955;SDS011;27666;51.498;11.966;2023-01-10T06:50:41;8.30;;;5.10;;
17955;SDS011;27666;51.498;11.966;2023-01-10T06:53:27;10.27;;;5.23;;
17955;SDS011;27666;51.498;11.966;2023-01-10T06:56:14;4.97;;;3.63;;
17955;SDS011;27666;51.498;11.966;2023-01-10T06:59:00;7.90;;;4.10;;
17955;SDS011;27666;51.498;11.966;2023-01-10T07:01:48;5.73;;;3.73;;
17955;SDS011;27666;51.498;11.966;2023-01-10T07:04:34;4.83;;;3.33;;
17955;SDS011;27666;51.498;11.966;2023-01-10T07:07:21;9.17;;;4.60;;
17955;SDS011;27666;51.498;11.966;2023-01-10T07:10:08;4.87;;;3.47;;
17955;SDS011;27666;51.498;11.966;2023-01-10T07:12:55;5.80;;;3.57;;
17955;SDS011;27666;51.498;11.966;2023-01-10T07:15:43;3.60;;;3.13;;
17955;SDS011;27666;51.498;11.966;2023-01-10T07:18:31;7.13;;;3.67;;
17955;SDS011;27666;51.498;11.966;2023-01-10T07:21:18;6.47;;;3.30;;
17955;SDS011;27666;51.498;11.966;2023-01-10T07:24:05;6.53;;;3.33;;
17955;SDS011;27666;51.498;11.966;2023-01-10T07:26:53;4.33;;;3.20;;
17955;SDS011;27666;51.498;11.966;2023-01-10T07:29:40;4.80;;;3.10;;
17955;SDS011;27666;51.498;11.966;2023-01-10T07:32:26;5.07;;;3.37;;
17955;SDS011;27666;51.498;11.966;2023-01-10T07:35:14;6.43;;;3.30;;
17955;SDS011;27666;51.498;11.966;2023-01-10T07:38:01;6.13;;;3.10;;
17955;SDS011;27666;51.498;11.966;2023-01-10T07:40:48;4.93;;;3.17;;
17955;SDS011;27666;51.498;11.966;2023-01-10T07:43:34;5.70;;;2.90;;
17955;SDS011;27666;51.498;11.966;2023-01-10T07:46:21;9.77;;;3.40;;
17955;SDS011;27666;51.498;11.966;2023-01-10T07:49:07;8.33;;;3.20;;
17955;SDS011;27666;51.498;11.966;2023-01-10T07:51:55;3.67;;;2.50;;
17955;SDS011;27666;51.498;11.966;2023-01-10T07:54:41;3.83;;;2.50;;
17955;SDS011;27666;51.498;11.966;2023-01-10T07:57:28;5.27;;;2.90;;
17955;SDS011;27666;51.498;11.966;2023-01-10T08:00:16;6.00;;;2.53;;
17955;SDS011;27666;51.498;11.966;2023-01-10T08:03:03;5.67;;;2.60;;
17955;SDS011;27666;51.498;11.966;2023-01-10T08:05:55;5.20;;;2.90;;
17955;SDS011;27666;51.498;11.966;2023-01-10T08:08:44;6.43;;;2.70;;
17955;SDS011;27666;51.498;11.966;2023-01-10T08:11:30;4.97;;;2.90;;
17955;SDS011;27666;51.498;11.966;2023-01-10T08:14:16;10.83;;;3.70;;
17955;SDS011;27666;51.498;11.966;2023-01-10T08:17:02;7.57;;;3.57;;
17955;SDS011;27666;51.498;11.966;2023-01-10T08:19:49;5.67;;;3.53;;
17955;SDS011;27666;51.498;11.966;2023-01-10T08:22:35;9.67;;;2.90;;
17955;SDS011;27666;51.498;11.966;2023-01-10T08:25:23;5.53;;;3.70;;
17955;SDS011;27666;51.498;11.966;2023-01-10T08:28:09;4.37;;;3.20;;
17955;SDS011;27666;51.498;11.966;2023-01-10T08:30:56;9.60;;;4.00;;
17955;SDS011;27666;51.498;11.966;2023-01-10T08:33:42;13.73;;;4.53;;
17955;SDS011;27666;51.498;11.966;2023-01-10T08:36:30;6.90;;;3.87;;
17955;SDS011;27666;51.498;11.966;2023-01-10T08:39:16;9.37;;;3.80;;
17955;SDS011;27666;51.498;11.966;2023-01-10T08:42:05;6.93;;;4.10;;
17955;SDS011;27666;51.498;11.966;2023-01-10T08:44:52;10.77;;;4.57;;
17955;SDS011;27666;51.498;11.966;2023-01-10T08:47:39;6.80;;;3.83;;
17955;SDS011;27666;51.498;11.966;2023-01-10T08:50:25;12.60;;;3.77;;
17955;SDS011;27666;51.498;11.966;2023-01-10T08:53:12;11.87;;;3.87;;
17955;SDS011;27666;51.498;11.966;2023-01-10T08:55:59;6.23;;;4.30;;
17955;SDS011;27666;51.498;11.966;2023-01-10T08:58:49;9.73;;;4.83;;
17955;SDS011;27666;51.498;11.966;2023-01-10T09:01:36;8.80;;;4.83;;
17955;SDS011;27666;51.498;11.966;2023-01-10T09:04:23;7.37;;;4.50;;
17955;SDS011;27666;51.498;11.966;2023-01-10T09:07:10;14.60;;;7.07;;
17955;SDS011;27666;51.498;11.966;2023-01-10T09:09:57;14.90;;;7.73;;
17955;SDS011;27666;51.498;11.966;2023-01-10T09:12:43;13.17;;;4.97;;
17955;SDS011;27666;51.498;11.966;2023-01-10T09:15:45;11.77;;;4.93;;
17955;SDS011;27666;51.498;11.966;2023-01-10T09:18:31;11.30;;;4.80;;
17955;SDS011;27666;51.498;11.966;2023-01-10T09:21:18;9.33;;;5.17;;
17955;SDS011;27666;51.498;11.966;2023-01-10T09:24:05;13.37;;;5.73;;
17955;SDS011;27666;51.498;11.966;2023-01-10T09:26:51;11.47;;;4.97;;
17955;SDS011;27666;51.498;11.966;2023-01-10T09:29:38;10.77;;;5.17;;
17955;SDS011;27666;51.498;11.966;2023-01-10T09:32:26;14.57;;;7.60;;
17955;SDS011;27666;51.498;11.966;2023-01-10T09:35:12;11.87;;;5.47;;
17955;SDS011;27666;51.498;11.966;2023-01-10T09:37:59;6.90;;;4.00;;
17955;SDS011;27666;51.498;11.966;2023-01-10T09:40:49;12.67;;;5.57;;
17955;SDS011;27666;51.498;11.966;2023-01-10T09:43:50;11.80;;;5.27;;
17955;SDS011;27666;51.498;11.966;2023-01-10T09:46:49;7.77;;;3.90;;
17955;SDS011;27666;51.498;11.966;2023-01-10T09:49:43;9.23;;;4.03;;
17955;SDS011;27666;51.498;11.966;2023-01-10T09:52:37;11.73;;;4.13;;
17955;SDS011;27666;51.498;11.966;2023-01-10T09:55:26;17.63;;;9.07;;
17955;SDS011;27666;51.498;11.966;2023-01-10T09:58:16;16.33;;;7.37;;
17955;SDS011;27666;51.498;11.966;2023-01-10T10:01:05;10.40;;;4.73;;
17955;SDS011;27666;51.498;11.966;2023-01-10T10:03:57;8.77;;;4.43;;
17955;SDS011;27666;51.498;11.966;2023-01-10T10:06:50;10.93;;;4.07;;
17955;SDS011;27666;51.498;11.966;2023-01-10T10:09:37;8.43;;;4.00;;
17955;SDS011;27666;51.498;11.966;2023-01-10T10:12:25;16.70;;;5.40;;
17955;SDS011;27666;51.498;11.966;2023-01-10T10:15:22;8.53;;;3.87;;
17955;SDS011;27666;51.498;11.966;2023-01-10T10:18:17;7.47;;;3.80;;
17955;SDS011;27666;51.498;11.966;2023-01-10T10:21:14;11.50;;;4.00;;
17955;SDS011;27666;51.498;11.966;2023-01-10T10:27:32;6.63;;;3.40;;
17955;SDS011;27666;51.498;11.966;2023-01-10T10:30:25;11.03;;;3.40;;
17955;SDS011;27666;51.498;11.966;2023-01-10T10:33:28;12.13;;;5.37;;
17955;SDS011;27666;51.498;11.966;2023-01-10T10:36:23;8.43;;;3.70;;
17955;SDS011;27666;51.498;11.966;2023-01-10T10:39:14;4.93;;;3.57;;
17955;SDS011;27666;51.498;11.966;2023-01-10T10:42:09;7.93;;;3.53;;
17955;SDS011;27666;51.498;11.966;2023-01-10T10:44:58;8.30;;;3.73;;
17955;SDS011;27666;51.498;11.966;2023-01-10T10:47:49;11.53;;;3.30;;
17955;SDS011;27666;51.498;11.966;2023-01-10T10:50:43;6.73;;;3.40;;
17955;SDS011;27666;51.498;11.966;2023-01-10T10:53:35;6.77;;;3.53;;
17955;SDS011;27666;51.498;11.966;2023-01-10T10:56:23;12.33;;;4.90;;
17955;SDS011;27666;51.498;11.966;2023-01-10T10:59:14;6.60;;;3.87;;
17955;SDS011;27666;51.498;11.966;2023-01-10T11:02:09;9.23;;;4.47;;
17955;SDS011;27666;51.498;11.966;2023-01-10T11:05:06;10.20;;;3.53;;
17955;SDS011;27666;51.498;11.966;2023-01-10T11:08:03;8.27;;;3.50;;
17955;SDS011;27666;51.498;11.966;2023-01-10T11:10:53;7.57;;;3.60;;
17955;SDS011;27666;51.498;11.966;2023-01-10T11:13:42;9.63;;;2.90;;
17955;SDS011;27666;51.498;11.966;2023-01-10T11:16:34;6.20;;;3.20;;
17955;SDS011;27666;51.498;11.966;2023-01-10T11:19:23;11.43;;;3.37;;
17955;SDS011;27666;51.498;11.966;2023-01-10T11:22:11;10.57;;;3.40;;
17955;SDS011;27666;51.498;11.966;2023-01-10T11:25:01;9.77;;;3.13;;
17955;SDS011;27666;51.498;11.966;2023-01-10T11:27:49;7.93;;;2.87;;
17955;SDS011;27666;51.498;11.966;2023-01-10T11:30:38;5.97;;;2.90;;
17955;SDS011;27666;51.498;11.966;2023-01-10T11:33:27;7.90;;;3.30;;
17955;SDS011;27666;51.498;11.966;2023-01-10T11:36:16;9.60;;;3.47;;
17955;SDS011;27666;51.498;11.966;2023-01-10T11:39:03;9.47;;;3.37;;
17955;SDS011;27666;51.498;11.966;2023-01-10T11:41:49;10.87;;;3.57;;
17955;SDS011;27666;51.498;11.966;2023-01-10T11:44:37;6.57;;;3.13;;
17955;SDS011;27666;51.498;11.966;2023-01-10T11:47:23;8.33;;;3.90;;
17955;SDS011;27666;51.498;11.966;2023-01-10T11:50:16;5.90;;;2.93;;
17955;SDS011;27666;51.498;11.966;2023-01-10T11:53:05;10.10;;;2.83;;
17955;SDS011;27666;51.498;11.966;2023-01-10T11:56:12;3.57;;;3.03;;
17955;SDS011;27666;51.498;11.966;2023-01-10T11:59:07;6.27;;;2.70;;
17955;SDS011;27666;51.498;11.966;2023-01-10T12:01:58;4.93;;;2.83;;
17955;SDS011;27666;51.498;11.966;2023-01-10T12:04:48;6.40;;;2.83;;
17955;SDS011;27666;51.498;11.966;2023-01-10T12:07:54;6.90;;;3.03;;
17955;SDS011;27666;51.498;11.966;2023-01-10T12:10:41;9.50;;;3.03;;
17955;SDS011;27666;51.498;11.966;2023-01-10T12:13:44;7.23;;;3.07;;
17955;SDS011;27666;51.498;11.966;2023-01-10T12:16:32;7.33;;;3.23;;
17955;SDS011;27666;51.498;11.966;2023-01-10T12:19:19;5.40;;;3.30;;
17955;SDS011;27666;51.498;11.966;2023-01-10T12:22:06;8.93;;;3.43;;
17955;SDS011;27666;51.498;11.966;2023-01-10T12:24:58;7.90;;;4.23;;
17955;SDS011;27666;51.498;11.966;2023-01-10T12:27:48;8.57;;;3.90;;
17955;SDS011;27666;51.498;11.966;2023-01-10T12:30:35;9.70;;;4.10;;
17955;SDS011;27666;51.498;11.966;2023-01-10T12:33:27;6.87;;;3.30;;
17955;SDS011;27666;51.498;11.966;2023-01-10T12:36:22;5.47;;;3.50;;
17955;SDS011;27666;51.498;11.966;2023-01-10T12:39:18;8.20;;;4.00;;
17955;SDS011;27666;51.498;11.966;2023-01-10T12:42:13;9.73;;;4.53;;
17955;SDS011;27666;51.498;11.966;2023-01-10T12:45:28;10.90;;;6.13;;
17955;SDS011;27666;51.498;11.966;2023-01-10T12:48:21;8.53;;;5.23;;
17955;SDS011;27666;51.498;11.966;2023-01-10T12:51:15;12.40;;;5.80;;
17955;SDS011;27666;51.498;11.966;2023-01-10T12:54:09;10.10;;;5.23;;
17955;SDS011;27666;51.498;11.966;2023-01-10T12:57:02;4.20;;;3.60;;
17955;SDS011;27666;51.498;11.966;2023-01-10T13:00:02;12.33;;;4.27;;
17955;SDS011;27666;51.498;11.966;2023-01-10T13:02:52;10.70;;;4.40;;
17955;SDS011;27666;51.498;11.966;2023-01-10T13:05:40;10.03;;;4.30;;
17955;SDS011;27666;51.498;11.966;2023-01-10T13:08:28;11.27;;;4.50;;
17955;SDS011;27666;51.498;11.966;2023-01-10T13:11:18;12.13;;;3.90;;
17955;SDS011;27666;51.498;11.966;2023-01-10T13:14:09;10.97;;;4.40;;
17955;SDS011;27666;51.498;11.966;2023-01-10T13:17:03;8.00;;;3.87;;
17955;SDS011;27666;51.498;11.966;2023-01-10T13:20:17;10.77;;;4.60;;
17955;SDS011;27666;51.498;11.966;2023-01-10T13:23:18;14.73;;;5.67;;
17955;SDS011;27666;51.498;11.966;2023-01-10T13:26:10;11.27;;;4.90;;
17955;SDS011;27666;51.498;11.966;2023-01-10T13:28:58;14.10;;;5.17;;
17955;SDS011;27666;51.498;11.966;2023-01-10T13:31:47;9.20;;;4.33;;
17955;SDS011;27666;51.498;11.966;2023-01-10T13:34:42;9.57;;;4.37;;
17955;SDS011;27666;51.498;11.966;2023-01-10T13:37:29;9.80;;;5.00;;
17955;SDS011;27666;51.498;11.966;2023-01-10T13:40:20;11.67;;;4.27;;
17955;SDS011;27666;51.498;11.966;2023-01-10T13:43:24;7.00;;;4.47;;
17955;SDS011;27666;51.498;11.966;2023-01-10T13:46:36;8.37;;;5.00;;
17955;SDS011;27666;51.498;11.966;2023-01-10T13:52:34;9.27;;;5.53;;
17955;SDS011;27666;51.498;11.966;2023-01-10T13:55:28;6.77;;;4.40;;
17955;SDS011;27666;51.498;11.966;2023-01-10T14:01:42;9.13;;;4.13;;
17955;SDS011;27666;51.498;11.966;2023-01-10T14:04:49;8.03;;;3.40;;
17955;SDS011;27666;51.498;11.966;2023-01-10T14:07:41;25.23;;;9.03;;
17955;SDS011;27666;51.498;11.966;2023-01-10T14:10:30;8.87;;;4.03;;
17955;SDS011;27666;51.498;11.966;2023-01-10T14:13:19;11.33;;;4.73;;
17955;SDS011;27666;51.498;11.966;2023-01-10T14:16:18;8.53;;;4.17;;
17955;SDS011;27666;51.498;11.966;2023-01-10T14:19:23;11.27;;;4.73;;
17955;SDS011;27666;51.498;11.966;2023-01-10T14:22:24;10.77;;;4.57;;
17955;SDS011;27666;51.498;11.966;2023-01-10T14:25:16;8.30;;;5.03;;
17955;SDS011;27666;51.498;11.966;2023-01-10T14:28:14;10.90;;;4.43;;
17955;SDS011;27666;51.498;11.966;2023-01-10T14:31:06;13.83;;;4.37;;
17955;SDS011;27666;51.498;11.966;2023-01-10T14:33:53;13.20;;;4.60;;
17955;SDS011;27666;51.498;11.966;2023-01-10T14:36:44;9.13;;;4.47;;
17955;SDS011;27666;51.498;11.966;2023-01-10T14:39:35;11.80;;;4.80;;
17955;SDS011;27666;51.498;11.966;2023-01-10T14:42:22;10.37;;;5.20;;
17955;SDS011;27666;51.498;11.966;2023-01-10T14:45:14;21.13;;;5.33;;
17955;SDS011;27666;51.498;11.966;2023-01-10T14:48:22;13.83;;;6.50;;
17955;SDS011;27666;51.498;11.966;2023-01-10T14:51:18;10.47;;;4.30;;
17955;SDS011;27666;51.498;11.966;2023-01-10T14:54:10;11.77;;;4.47;;
17955;SDS011;27666;51.498;11.966;2023-01-10T14:57:00;7.00;;;3.43;;
17955;SDS011;27666;51.498;11.966;2023-01-10T14:59:46;8.17;;;4.10;;
17955;SDS011;27666;51.498;11.966;2023-01-10T15:02:33;12.70;;;4.50;;
17955;SDS011;27666;51.498;11.966;2023-01-10T15:05:24;10.23;;;4.97;;
17955;SDS011;27666;51.498;11.966;2023-01-10T15:08:13;13.63;;;4.50;;
17955;SDS011;27666;51.498;11.966;2023-01-10T15:11:06;5.20;;;2.97;;
17955;SDS011;27666;51.498;11.966;2023-01-10T15:13:58;5.53;;;2.90;;
17955;SDS011;27666;51.498;11.966;2023-01-10T15:16:51;5.70;;;3.27;;
17955;SDS011;27666;51.498;11.966;2023-01-10T15:19:39;11.47;;;3.47;;
17955;SDS011;27666;51.498;11.966;2023-01-10T15:22:27;9.83;;;3.70;;
17955;SDS011;27666;51.498;11.966;2023-01-10T15:25:25;12.37;;;4.80;;
17955;SDS011;27666;51.498;11.966;2023-01-10T15:28:14;8.10;;;3.20;;
17955;SDS011;27666;51.498;11.966;2023-01-10T15:31:03;9.50;;;3.97;;
17955;SDS011;27666;51.498;11.966;2023-01-10T15:33:52;14.07;;;7.60;;
17955;SDS011;27666;51.498;11.966;2023-01-10T15:36:41;12.60;;;4.00;;
17955;SDS011;27666;51.498;11.966;2023-01-10T15:39:31;8.50;;;3.60;;
17955;SDS011;27666;51.498;11.966;2023-01-10T15:42:20;16.80;;;4.73;;
17955;SDS011;27666;51.498;11.966;2023-01-10T15:45:21;17.03;;;4.10;;
17955;SDS011;27666;51.498;11.966;2023-01-10T15:48:25;6.67;;;3.60;;
17955;SDS011;27666;51.498;11.966;2023-01-10T15:51:19;8.63;;;3.60;;
17955;SDS011;27666;51.498;11.966;2023-01-10T15:54:26;14.20;;;5.07;;
17955;SDS011;27666;51.498;11.966;2023-01-10T15:57:18;13.77;;;6.03;;
17955;SDS011;27666;51.498;11.966;2023-01-10T16:03:01;9.93;;;4.20;;
17955;SDS011;27666;51.498;11.966;2023-01-10T16:05:59;7.97;;;3.77;;
17955;SDS011;27666;51.498;11.966;2023-01-10T16:08:48;6.67;;;3.70;;
17955;SDS011;27666;51.498;11.966;2023-01-10T16:11:38;12.80;;;3.53;;
17955;SDS011;27666;51.498;11.966;2023-01-10T16:14:47;6.67;;;3.20;;
17955;SDS011;27666;51.498;11.966;2023-01-10T16:17:33;8.20;;;3.53;;
17955;SDS011;27666;51.498;11.966;2023-01-10T16:20:20;7.43;;;3.00;;
17955;SDS011;27666;51.498;11.966;2023-01-10T16:23:15;9.03;;;3.33;;
17955;SDS011;27666;51.498;11.966;2023-01-10T16:26:04;8.33;;;3.00;;
17955;SDS011;27666;51.498;11.966;2023-01-10T16:28:53;8.40;;;3.10;;
17955;SDS011;27666;51.498;11.966;2023-01-10T16:31:40;7.93;;;3.57;;
17955;SDS011;27666;51.498;11.966;2023-01-10T16:34:26;8.27;;;3.07;;
17955;SDS011;27666;51.498;11.966;2023-01-10T16:37:13;17.57;;;9.17;;
17955;SDS011;27666;51.498;11.966;2023-01-10T16:40:01;13.37;;;4.30;;
17955;SDS011;27666;51.498;11.966;2023-01-10T16:42:56;10.03;;;3.30;;
17955;SDS011;27666;51.498;11.966;2023-01-10T16:46:00;10.40;;;3.37;;
17955;SDS011;27666;51.498;11.966;2023-01-10T16:48:47;10.37;;;3.40;;
17955;SDS011;27666;51.498;11.966;2023-01-10T16:51:37;8.43;;;3.43;;
17955;SDS011;27666;51.498;11.966;2023-01-10T16:54:24;13.13;;;3.50;;
17955;SDS011;27666;51.498;11.966;2023-01-10T16:57:13;5.27;;;2.90;;
17955;SDS011;27666;51.498;11.966;2023-01-10T17:00:01;5.03;;;3.27;;
17955;SDS011;27666;51.498;11.966;2023-01-10T17:02:48;10.33;;;2.80;;